createdAt,value
2022-12-03T00:00:13.051Z,3.80
2022-12-03T00:02:41.706Z,3.85
2022-12-03T00:05:10.803Z,3.92
2022-12-03T00:07:38.563Z,3.75
2022-12-03T00:10:09.623Z,3.52
2022-12-03T00:12:37.383Z,3.88
2022-12-03T00:15:09.343Z,3.67
2022-12-03T00:17:37.193Z,3.77
2022-12-03T00:20:06.542Z,3.93
2022-12-03T00:22:34.355Z,3.65
2022-12-03T00:25:02.119Z,3.66
2022-12-03T00:27:29.866Z,3.70
2022-12-03T00:29:57.706Z,3.69
2022-12-03T00:32:27.111Z,3.75
2022-12-03T00:34:55.036Z,3.67
2022-12-03T00:37:22.980Z,3.72
2022-12-03T00:39:50.738Z,3.75
2022-12-03T00:42:18.571Z,3.87
2022-12-03T00:44:46.375Z,3.76
2022-12-03T00:47:14.207Z,3.68
2022-12-03T00:49:43.439Z,3.72
2022-12-03T00:52:11.161Z,3.72
2022-12-03T00:54:39.125Z,3.84
2022-12-03T00:57:06.868Z,3.74
2022-12-03T00:59:34.699Z,3.87
2022-12-03T01:02:02.670Z,3.82
2022-12-03T01:04:31.064Z,3.69
2022-12-03T01:07:01.248Z,3.78
2022-12-03T01:09:28.927Z,3.86
2022-12-03T01:11:56.728Z,3.97
2022-12-03T01:14:24.928Z,3.57
2022-12-03T01:16:52.663Z,3.89
2022-12-03T01:19:20.537Z,3.87
2022-12-03T01:21:51.180Z,3.76
2022-12-03T01:24:21.009Z,3.86
2022-12-03T01:26:48.797Z,3.90
2022-12-03T01:29:16.708Z,4.00
2022-12-03T01:32:02.191Z,3.98
2022-12-03T01:34:30.183Z,3.89
2022-12-03T01:36:58.427Z,3.80
2022-12-03T01:39:27.683Z,3.83
2022-12-03T01:41:56.582Z,3.87
2022-12-03T01:44:28.080Z,3.79
2022-12-03T01:47:00.367Z,3.70
2022-12-03T01:49:32.511Z,3.74
2022-12-03T01:52:01.132Z,3.93
2022-12-03T01:54:41.229Z,3.78
2022-12-03T01:57:23.464Z,3.49
2022-12-03T01:59:53.040Z,3.58
2022-12-03T02:04:54.495Z,3.60
2022-12-03T02:07:27.924Z,3.52
2022-12-03T02:10:00.785Z,3.78
2022-12-03T02:12:32.999Z,3.49
2022-12-03T02:15:02.394Z,3.56
2022-12-03T02:17:30.535Z,3.73
2022-12-03T02:19:59.494Z,3.50
2022-12-03T02:22:39.285Z,3.66
2022-12-03T02:25:15.264Z,3.35
2022-12-03T02:27:44.849Z,3.66
2022-12-03T02:30:16.528Z,3.81
2022-12-03T02:32:44.752Z,3.89
2022-12-03T02:35:17.199Z,4.14
2022-12-03T02:37:48.524Z,4.28
2022-12-03T02:40:22.435Z,4.01
2022-12-03T02:42:55.657Z,3.55
2022-12-03T02:45:29.706Z,3.80
2022-12-03T02:48:02.100Z,3.86
2022-12-03T02:50:35.076Z,3.82
2022-12-03T02:53:08.469Z,3.70
2022-12-03T02:55:38.720Z,3.94
2022-12-03T02:58:07.768Z,3.73
2022-12-03T03:00:37.678Z,4.19
2022-12-03T03:03:08.989Z,3.88
2022-12-03T03:05:39.125Z,4.10
2022-12-03T03:08:09.787Z,3.87
2022-12-03T03:10:41.128Z,3.74
2022-12-03T03:13:12.391Z,3.84
2022-12-03T03:15:42.792Z,3.82
2022-12-03T03:18:13.384Z,3.94
2022-12-03T03:20:42.631Z,3.59
2022-12-03T03:23:18.803Z,3.76
2022-12-03T03:25:51.138Z,3.72
2022-12-03T03:28:19.962Z,3.86
2022-12-03T03:30:48.400Z,3.64
2022-12-03T03:33:17.547Z,3.71
2022-12-03T03:35:49.160Z,3.60
2022-12-03T03:38:21.744Z,3.55
2022-12-03T03:40:53.181Z,3.75
2022-12-03T03:43:23.271Z,3.61
2022-12-03T03:45:53.148Z,3.49
2022-12-03T03:48:22.646Z,3.42
2022-12-03T03:50:52.085Z,3.28
2022-12-03T03:53:22.007Z,3.59
2022-12-03T03:55:52.220Z,3.63
2022-12-03T03:58:20.051Z,3.80
2022-12-03T04:00:48.453Z,3.48
2022-12-03T04:03:16.151Z,3.48
2022-12-03T04:05:44.060Z,3.49
2022-12-03T04:08:11.859Z,3.64
2022-12-03T04:10:57.316Z,3.82
2022-12-03T04:13:26.408Z,3.64
2022-12-03T04:15:54.674Z,3.49
2022-12-03T04:18:40.276Z,3.50
2022-12-03T04:21:25.753Z,3.70
2022-12-03T04:23:53.756Z,3.46
2022-12-03T04:26:39.240Z,3.44
2022-12-03T04:29:08.907Z,3.64
2022-12-03T04:31:54.477Z,3.46
2022-12-03T04:34:41.013Z,3.36
2022-12-03T04:37:09.413Z,3.56
2022-12-03T04:39:37.483Z,3.57
2022-12-03T04:42:06.166Z,3.60
2022-12-03T04:44:38.809Z,3.50
2022-12-03T04:47:12.043Z,3.64
2022-12-03T04:49:42.893Z,3.53
2022-12-03T04:52:12.986Z,3.49
2022-12-03T04:54:41.932Z,3.51
2022-12-03T04:57:10.903Z,3.42
2022-12-03T04:59:40.584Z,3.14
2022-12-03T05:02:09.044Z,3.35
2022-12-03T05:04:37.030Z,2.95
2022-12-03T05:07:05.029Z,3.41
2022-12-03T05:09:32.704Z,3.18
2022-12-03T05:12:00.619Z,3.26
2022-12-03T05:14:28.615Z,3.37
2022-12-03T05:16:58.113Z,3.52
2022-12-03T05:19:45.961Z,3.03
2022-12-03T05:22:12.889Z,2.88
2022-12-03T05:24:40.653Z,3.19
2022-12-03T05:27:08.393Z,3.15
2022-12-03T05:29:36.194Z,3.22
2022-12-03T05:32:05.703Z,3.04
2022-12-03T05:34:33.526Z,2.95
2022-12-03T05:37:01.235Z,2.76
2022-12-03T05:39:28.990Z,2.70
2022-12-03T05:42:14.629Z,2.98
2022-12-03T05:44:42.444Z,2.78
2022-12-03T05:47:11.491Z,3.07
2022-12-03T05:49:39.217Z,3.01
2022-12-03T05:52:07.396Z,2.93
2022-12-03T05:54:35.412Z,3.06
2022-12-03T05:57:03.157Z,2.91
2022-12-03T05:59:31.149Z,3.18
2022-12-03T06:01:58.873Z,2.83
2022-12-03T06:04:27.933Z,3.06
2022-12-03T06:06:56.216Z,3.10
2022-12-03T06:09:24.206Z,3.13
2022-12-03T06:11:54.062Z,3.24
2022-12-03T06:14:22.741Z,3.16
2022-12-03T06:16:50.539Z,3.13
2022-12-03T06:19:18.417Z,2.71
2022-12-03T06:21:47.549Z,2.73
2022-12-03T06:24:15.367Z,2.96
2022-12-03T06:26:43.094Z,2.82
2022-12-03T06:29:11.058Z,2.73
2022-12-03T06:31:39.219Z,2.83
2022-12-03T06:34:07.219Z,2.67
2022-12-03T06:36:35.166Z,2.72
2022-12-03T06:39:05.235Z,2.76
2022-12-03T06:41:33.125Z,3.03
2022-12-03T06:44:01.123Z,2.67
2022-12-03T06:46:28.823Z,2.50
2022-12-03T06:48:56.624Z,2.56
2022-12-03T06:51:24.319Z,2.59
2022-12-03T06:53:52.089Z,2.49
2022-12-03T06:56:22.461Z,2.60
2022-12-03T06:58:50.469Z,2.72
2022-12-03T07:01:18.360Z,2.74
2022-12-03T07:03:46.141Z,2.77
2022-12-03T07:06:14.080Z,2.74
2022-12-03T07:08:41.946Z,2.90
2022-12-03T07:11:30.070Z,2.35
2022-12-03T07:14:04.950Z,2.44
2022-12-03T07:16:34.252Z,2.50
2022-12-03T07:19:02.557Z,2.59
2022-12-03T07:21:30.521Z,2.47
2022-12-03T07:23:58.340Z,2.31
2022-12-03T07:26:26.548Z,2.55
2022-12-03T07:28:54.465Z,2.24
2022-12-03T07:31:24.138Z,1.90
2022-12-03T07:33:51.994Z,1.84
2022-12-03T07:36:19.813Z,1.82
2022-12-03T07:38:47.604Z,1.99
2022-12-03T07:41:15.484Z,2.13
2022-12-03T07:43:44.927Z,2.13
2022-12-03T07:46:12.890Z,2.20
2022-12-03T07:48:41.996Z,2.31
2022-12-03T07:51:14.278Z,2.04
2022-12-03T07:53:43.056Z,2.13
2022-12-03T07:56:10.986Z,2.08
2022-12-03T07:58:38.900Z,2.23
2022-12-03T08:01:07.513Z,2.54
2022-12-03T08:03:35.385Z,2.30
2022-12-03T08:06:05.180Z,2.36
2022-12-03T08:08:32.951Z,2.12
2022-12-03T08:11:02.455Z,2.52
2022-12-03T08:13:30.298Z,2.81
2022-12-03T08:16:06.791Z,2.43
2022-12-03T08:18:34.692Z,2.42
2022-12-03T08:21:03.889Z,2.47
2022-12-03T08:23:31.653Z,2.54
2022-12-03T08:26:02.394Z,2.68
2022-12-03T08:28:30.370Z,2.63
2022-12-03T08:31:06.746Z,2.54
2022-12-03T08:33:37.344Z,2.55
2022-12-03T08:36:15.520Z,2.35
2022-12-03T08:38:50.267Z,2.63
2022-12-03T08:41:40.220Z,2.83
2022-12-03T08:44:26.780Z,2.92
2022-12-03T08:47:03.294Z,2.99
2022-12-03T08:49:31.048Z,2.77
2022-12-03T08:52:03.299Z,3.05
2022-12-03T08:54:32.052Z,3.03
2022-12-03T08:57:07.766Z,3.13
2022-12-03T08:59:36.370Z,3.06
2022-12-03T09:02:24.486Z,3.00
2022-12-03T09:04:55.005Z,3.03
2022-12-03T09:07:24.542Z,2.93
2022-12-03T09:09:52.760Z,2.66
2022-12-03T09:12:22.116Z,2.58
2022-12-03T09:14:49.886Z,2.25
2022-12-03T09:17:17.914Z,2.19
2022-12-03T09:19:46.509Z,2.03
2022-12-03T09:22:15.447Z,2.02
2022-12-03T09:24:45.176Z,1.88
2022-12-03T09:27:12.868Z,1.91
2022-12-03T09:29:40.682Z,2.12
2022-12-03T09:32:10.561Z,2.15
2022-12-03T09:34:42.271Z,1.82
2022-12-03T09:37:10.171Z,1.97
2022-12-03T09:39:37.994Z,2.27
2022-12-03T09:42:07.440Z,1.97
2022-12-03T09:44:37.226Z,1.97
2022-12-03T09:47:06.916Z,1.91
2022-12-03T09:49:38.459Z,1.64
2022-12-03T09:52:08.313Z,1.37
2022-12-03T09:54:40.536Z,1.54
2022-12-03T09:57:14.489Z,1.43
2022-12-03T09:59:42.315Z,1.69
2022-12-03T10:02:21.210Z,1.81
2022-12-03T10:04:50.141Z,1.78
2022-12-03T10:07:18.251Z,1.84
2022-12-03T10:09:46.450Z,1.81
2022-12-03T10:12:17.613Z,1.96
2022-12-03T10:14:45.488Z,2.01
2022-12-03T10:17:13.377Z,1.65
2022-12-03T10:19:42.728Z,1.66
2022-12-03T10:22:10.540Z,1.96
2022-12-03T10:24:39.713Z,2.36
2022-12-03T10:27:30.140Z,2.15
2022-12-03T10:30:00.584Z,2.17
2022-12-03T10:32:42.285Z,2.10
2022-12-03T10:35:14.177Z,2.09
2022-12-03T10:38:01.371Z,2.31
2022-12-03T10:40:31.645Z,2.08
2022-12-03T10:43:23.131Z,2.45
2022-12-03T10:45:52.687Z,2.39
2022-12-03T10:48:25.698Z,2.37
2022-12-03T10:50:56.636Z,2.35
2022-12-03T10:53:28.023Z,1.93
2022-12-03T10:55:59.506Z,1.61
2022-12-03T10:58:31.483Z,1.76
2022-12-03T11:01:03.830Z,1.59
2022-12-03T11:03:37.013Z,1.66
2022-12-03T11:06:05.403Z,1.78
2022-12-03T11:08:37.594Z,1.62
2022-12-03T11:11:08.894Z,1.47
2022-12-03T11:13:52.376Z,1.61
2022-12-03T11:17:11.292Z,2.08
2022-12-03T11:19:47.442Z,2.16
2022-12-03T11:22:28.829Z,2.18
2022-12-03T11:25:50.367Z,1.75
2022-12-03T11:28:56.532Z,1.98
2022-12-03T11:31:44.128Z,2.05
2022-12-03T11:34:42.568Z,2.17
2022-12-03T11:37:24.711Z,1.92
2022-12-03T11:40:33.501Z,1.88
2022-12-03T11:43:05.435Z,2.30
2022-12-03T11:45:39.229Z,2.08
2022-12-03T11:48:14.598Z,1.72
2022-12-03T11:50:45.545Z,2.28
2022-12-03T11:53:17.331Z,2.30
2022-12-03T11:55:52.144Z,1.90
2022-12-03T11:58:27.119Z,1.77
2022-12-03T12:00:59.361Z,2.04
2022-12-03T12:03:33.214Z,2.29
2022-12-03T12:06:06.954Z,2.19
2022-12-03T12:08:36.693Z,2.19
2022-12-03T12:11:16.608Z,2.22
2022-12-03T12:13:55.635Z,2.23
2022-12-03T12:16:50.437Z,2.38
2022-12-03T12:19:35.426Z,1.92
2022-12-03T12:22:30.802Z,1.86
2022-12-03T12:25:01.256Z,2.27
2022-12-03T12:27:37.453Z,2.38
2022-12-03T12:30:12.281Z,2.41
2022-12-03T12:32:47.133Z,2.48
2022-12-03T12:35:20.557Z,2.68
2022-12-03T12:37:58.921Z,2.60
2022-12-03T12:40:33.885Z,2.40
2022-12-03T12:43:12.435Z,2.49
2022-12-03T12:45:44.752Z,2.33
2022-12-03T12:48:24.293Z,1.97
2022-12-03T12:50:59.697Z,2.29
2022-12-03T12:53:30.031Z,2.32
2022-12-03T12:56:00.941Z,2.24
2022-12-03T12:58:32.450Z,2.41
2022-12-03T13:01:06.656Z,2.35
2022-12-03T13:03:40.367Z,1.72
2022-12-03T13:06:16.960Z,1.87
2022-12-03T13:08:50.410Z,1.91
2022-12-03T13:11:36.957Z,1.89
2022-12-03T13:14:14.196Z,1.86
2022-12-03T13:16:42.144Z,1.85
2022-12-03T13:19:23.474Z,1.84
2022-12-03T13:21:53.503Z,1.49
2022-12-03T13:24:33.628Z,2.05
2022-12-03T13:27:09.886Z,1.52
2022-12-03T13:29:38.265Z,1.91
2022-12-03T13:32:14.662Z,1.90
2022-12-03T13:34:44.849Z,1.73
2022-12-03T13:37:17.612Z,1.66
2022-12-03T13:39:49.988Z,1.80
2022-12-03T13:42:42.129Z,1.94
2022-12-03T13:45:31.817Z,1.49
2022-12-03T13:48:03.885Z,1.68
2022-12-03T13:50:39.218Z,1.74
2022-12-03T13:53:23.134Z,1.86
2022-12-03T13:55:56.202Z,2.24
2022-12-03T13:58:24.038Z,2.20
2022-12-03T14:00:51.829Z,2.02
2022-12-03T14:03:19.847Z,1.52
2022-12-03T14:05:48.902Z,1.94
2022-12-03T14:08:16.751Z,1.65
2022-12-03T14:10:44.635Z,1.62
2022-12-03T14:13:12.329Z,1.93
2022-12-03T14:15:40.202Z,1.90
2022-12-03T14:18:07.995Z,1.78
2022-12-03T14:20:36.467Z,1.41
2022-12-03T14:23:05.768Z,1.53
2022-12-03T14:25:33.512Z,1.67
2022-12-03T14:28:01.318Z,1.36
2022-12-03T14:30:29.138Z,1.68
2022-12-03T14:32:57.094Z,1.30
2022-12-03T14:35:25.063Z,1.73
2022-12-03T14:37:52.952Z,1.64
2022-12-03T14:40:23.330Z,1.47
2022-12-03T14:42:51.451Z,1.43
2022-12-03T14:45:20.724Z,1.21
2022-12-03T14:47:48.904Z,1.38
2022-12-03T14:50:17.187Z,1.44
2022-12-03T14:52:45.166Z,1.13
2022-12-03T14:55:13.224Z,1.07
2022-12-03T14:57:42.602Z,1.26
2022-12-03T15:00:12.535Z,1.49
2022-12-03T15:02:40.742Z,1.61
2022-12-03T15:05:09.215Z,1.60
2022-12-03T15:07:39.271Z,1.63
2022-12-03T15:10:09.350Z,1.69
2022-12-03T15:12:37.383Z,1.84
2022-12-03T15:15:08.975Z,1.56
2022-12-03T15:17:36.923Z,1.03
2022-12-03T15:20:05.593Z,1.52
2022-12-03T15:22:34.224Z,1.23
2022-12-03T15:25:03.423Z,1.07
2022-12-03T15:27:31.452Z,1.23
2022-12-03T15:29:59.351Z,1.44
2022-12-03T15:32:28.503Z,1.35
2022-12-03T15:34:56.296Z,1.31
2022-12-03T15:37:27.514Z,1.50
2022-12-03T15:39:55.925Z,1.37
2022-12-03T15:42:24.131Z,1.57
2022-12-03T15:44:52.092Z,1.69
2022-12-03T15:47:19.919Z,1.78
2022-12-03T15:49:49.286Z,1.28
2022-12-03T15:52:17.060Z,1.43
2022-12-03T15:54:45.764Z,1.65
2022-12-03T15:57:13.705Z,1.64
2022-12-03T15:59:41.671Z,1.64
2022-12-03T16:02:09.626Z,1.49
2022-12-03T16:04:37.467Z,1.83
2022-12-03T16:07:07.154Z,1.88
2022-12-03T16:09:35.328Z,1.54
2022-12-03T16:12:03.087Z,1.57
2022-12-03T16:14:30.906Z,1.79
2022-12-03T16:17:00.110Z,1.35
2022-12-03T16:19:27.884Z,1.27
2022-12-03T16:21:55.777Z,1.45
2022-12-03T16:24:25.216Z,1.40
2022-12-03T16:26:53.265Z,1.44
2022-12-03T16:29:21.114Z,1.43
2022-12-03T16:31:48.809Z,1.53
2022-12-03T16:34:16.604Z,1.64
2022-12-03T16:36:45.602Z,1.36
2022-12-03T16:39:13.658Z,1.51
2022-12-03T16:41:42.995Z,1.62
2022-12-03T16:44:19.929Z,1.54
2022-12-03T16:46:47.799Z,1.26
2022-12-03T16:49:15.489Z,1.49
2022-12-03T16:51:43.562Z,1.55
2022-12-03T16:54:11.678Z,1.34
2022-12-03T16:56:39.440Z,1.41
2022-12-03T16:59:08.574Z,1.69
2022-12-03T17:01:36.457Z,1.66
2022-12-03T17:04:04.295Z,1.48
2022-12-03T17:06:32.131Z,1.44
2022-12-03T17:08:59.925Z,1.50
2022-12-03T17:11:27.649Z,1.58
2022-12-03T17:13:55.591Z,1.67
2022-12-03T17:16:25.295Z,1.43
2022-12-03T17:18:53.094Z,1.53
2022-12-03T17:21:20.984Z,1.61
2022-12-03T17:23:50.950Z,1.18
2022-12-03T17:26:19.769Z,1.36
2022-12-03T17:28:48.000Z,1.35
2022-12-03T17:31:15.751Z,0.92
2022-12-03T17:33:44.943Z,1.15
2022-12-03T17:36:12.707Z,1.51
2022-12-03T17:38:40.551Z,1.50
2022-12-03T17:41:08.895Z,1.52
2022-12-03T17:43:36.688Z,1.58
2022-12-03T17:46:19.469Z,1.21
2022-12-03T17:48:54.172Z,1.42
2022-12-03T17:51:21.845Z,1.53
2022-12-03T17:53:49.568Z,1.42
2022-12-03T17:56:17.315Z,1.37
2022-12-03T17:58:45.079Z,1.46
2022-12-03T18:01:13.293Z,1.45
2022-12-03T18:03:44.167Z,2.07
2022-12-03T18:06:13.604Z,1.86
2022-12-03T18:08:41.456Z,1.74
2022-12-03T18:11:09.429Z,1.84
2022-12-03T18:13:37.288Z,1.42
2022-12-03T18:16:05.704Z,1.63
2022-12-03T18:18:33.551Z,1.34
2022-12-03T18:21:03.861Z,1.48
2022-12-03T18:23:33.765Z,1.62
2022-12-03T18:26:03.349Z,1.74
2022-12-03T18:28:31.728Z,1.45
2022-12-03T18:31:00.237Z,1.65
2022-12-03T18:33:28.444Z,1.59
2022-12-03T18:35:59.004Z,1.66
2022-12-03T18:38:32.427Z,1.59
2022-12-03T18:41:01.112Z,1.68
2022-12-03T18:43:29.163Z,1.67
2022-12-03T18:45:57.201Z,1.40
2022-12-03T18:48:26.339Z,1.04
2022-12-03T18:50:54.677Z,1.33
2022-12-03T18:53:22.414Z,1.42
2022-12-03T18:55:51.904Z,1.78
2022-12-03T18:58:19.872Z,1.72
2022-12-03T19:00:47.943Z,1.39
2022-12-03T19:03:26.233Z,1.66
2022-12-03T19:05:54.092Z,1.62
2022-12-03T19:08:22.058Z,1.64
2022-12-03T19:10:59.464Z,1.78
2022-12-03T19:13:28.961Z,1.09
2022-12-03T19:15:56.886Z,1.76
2022-12-03T19:18:26.163Z,1.41
2022-12-03T19:20:53.993Z,1.54
2022-12-03T19:23:21.984Z,1.50
2022-12-03T19:25:58.563Z,1.79
2022-12-03T19:28:27.678Z,1.71
2022-12-03T19:31:01.179Z,1.42
2022-12-03T19:33:30.125Z,1.42
2022-12-03T19:36:00.283Z,1.67
2022-12-03T19:38:30.979Z,1.08
2022-12-03T19:41:02.831Z,1.12
2022-12-03T19:43:32.327Z,1.18
2022-12-03T19:46:04.556Z,1.33
2022-12-03T19:48:32.876Z,1.55
2022-12-03T19:51:19.817Z,1.46
2022-12-03T19:53:49.904Z,1.10
2022-12-03T19:56:20.660Z,1.10
2022-12-03T19:58:49.096Z,1.06
2022-12-03T20:01:20.144Z,1.10
2022-12-03T20:03:51.123Z,1.43
2022-12-03T20:06:24.182Z,1.22
2022-12-03T20:08:56.359Z,1.14
2022-12-03T20:11:28.148Z,1.30
2022-12-03T20:13:58.875Z,1.13
2022-12-03T20:16:28.760Z,1.35
2022-12-03T20:18:59.475Z,1.53
2022-12-03T20:21:29.304Z,1.43
2022-12-03T20:23:57.154Z,1.46
2022-12-03T20:26:29.940Z,1.33
2022-12-03T20:28:58.830Z,1.50
2022-12-03T20:31:30.085Z,1.57
2022-12-03T20:34:02.083Z,1.54
2022-12-03T20:36:32.831Z,1.53
2022-12-03T20:39:03.942Z,1.24
2022-12-03T20:41:37.101Z,1.45
2022-12-03T20:44:06.033Z,1.38
2022-12-03T20:46:33.997Z,1.59
2022-12-03T20:49:01.751Z,1.52
2022-12-03T20:51:32.099Z,1.50
2022-12-03T20:54:01.513Z,1.22
2022-12-03T20:56:34.561Z,1.48
2022-12-03T20:59:05.918Z,1.15
2022-12-03T21:01:35.768Z,1.08
2022-12-03T21:04:04.598Z,1.44
2022-12-03T21:06:35.736Z,1.55
2022-12-03T21:09:07.127Z,1.48
2022-12-03T21:11:40.165Z,1.61
2022-12-03T21:14:09.036Z,1.73
2022-12-03T21:17:06.505Z,1.86
2022-12-03T21:19:27.238Z,1.42
2022-12-03T21:21:54.982Z,1.65
2022-12-03T21:24:22.801Z,1.54
2022-12-03T21:26:52.154Z,1.50
2022-12-03T21:29:20.056Z,1.30
2022-12-03T21:31:47.890Z,1.44
2022-12-03T21:34:15.939Z,1.46
2022-12-03T21:36:54.588Z,1.35
2022-12-03T21:39:22.387Z,1.50
2022-12-03T21:42:22.228Z,1.55
2022-12-03T21:44:39.750Z,1.36
2022-12-03T21:47:09.875Z,1.44
2022-12-03T21:49:42.072Z,1.86
2022-12-03T21:52:10.379Z,1.87
2022-12-03T21:54:38.281Z,1.83
2022-12-03T21:57:07.429Z,1.42
2022-12-03T21:59:35.244Z,1.53
2022-12-03T22:02:03.725Z,1.36
2022-12-03T22:04:31.652Z,1.40
2022-12-03T22:06:59.384Z,1.51
2022-12-03T22:09:27.253Z,1.30
2022-12-03T22:11:56.783Z,1.49
2022-12-03T22:14:26.108Z,1.28
2022-12-03T22:16:54.166Z,1.24
2022-12-03T22:19:24.182Z,1.27
2022-12-03T22:21:54.900Z,1.54
2022-12-03T22:24:23.683Z,1.64
2022-12-03T22:26:52.192Z,1.64
2022-12-03T22:29:19.972Z,1.30
2022-12-03T22:31:49.071Z,1.21
2022-12-03T22:34:16.788Z,1.68
2022-12-03T22:36:44.752Z,1.34
2022-12-03T22:39:12.952Z,1.48
2022-12-03T22:41:40.879Z,0.99
2022-12-03T22:44:08.788Z,0.78
2022-12-03T22:46:36.709Z,1.40
2022-12-03T22:49:07.616Z,0.92
2022-12-03T22:51:36.800Z,1.20
2022-12-03T22:54:12.572Z,1.40
2022-12-03T22:56:50.197Z,1.37
2022-12-03T22:59:18.432Z,1.51
2022-12-03T23:01:56.399Z,1.56
2022-12-03T23:04:25.532Z,1.56
2022-12-03T23:06:53.303Z,1.56
2022-12-03T23:09:21.449Z,1.75
2022-12-03T23:11:49.258Z,1.91
2022-12-03T23:14:17.089Z,1.62
2022-12-03T23:16:44.792Z,1.27
2022-12-03T23:19:12.598Z,1.51
2022-12-03T23:21:41.883Z,1.60
2022-12-03T23:24:26.090Z,1.61
2022-12-03T23:26:53.858Z,1.25
2022-12-03T23:29:21.687Z,1.50
2022-12-03T23:32:18.263Z,1.76
2022-12-03T23:34:46.329Z,1.36
2022-12-03T23:37:15.456Z,1.51
2022-12-03T23:39:43.187Z,1.12
2022-12-03T23:42:11.023Z,1.40
2022-12-03T23:44:38.749Z,1.68
2022-12-03T23:47:07.178Z,1.63
2022-12-03T23:49:35.013Z,1.88
2022-12-03T23:52:02.755Z,1.91
2022-12-03T23:54:32.329Z,1.51
2022-12-03T23:57:00.261Z,1.65
2022-12-03T23:59:29.767Z,1.32
